createdAt,value
2022-08-05T00:00:54.514Z,1009.04
2022-08-05T00:01:54.614Z,1009.07
2022-08-05T00:02:54.621Z,1009.06
2022-08-05T00:03:54.574Z,1009.08
2022-08-05T00:04:55.801Z,1009.09
2022-08-05T00:06:04.662Z,1009.12
2022-08-05T00:06:54.658Z,1009.10
2022-08-05T00:08:00.425Z,1009.12
2022-08-05T00:08:54.719Z,1009.09
2022-08-05T00:09:54.751Z,1009.04
2022-08-05T00:10:54.781Z,1008.99
2022-08-05T00:11:59.645Z,1008.98
2022-08-05T00:12:55.825Z,1008.90
2022-08-05T00:13:54.876Z,1008.88
2022-08-05T00:14:54.900Z,1008.91
2022-08-05T00:16:00.365Z,1008.98
2022-08-05T00:16:54.963Z,1008.99
2022-08-05T00:17:54.995Z,1009.10
2022-08-05T00:18:55.023Z,1009.10
2022-08-05T00:20:02.862Z,1009.18
2022-08-05T00:20:55.086Z,1009.26
2022-08-05T00:21:55.114Z,1009.36
2022-08-05T00:22:57.391Z,1009.40
2022-08-05T00:24:10.248Z,1009.42
2022-08-05T00:24:55.318Z,1009.29
2022-08-05T00:25:55.240Z,1009.00
2022-08-05T00:26:55.267Z,1008.55
2022-08-05T00:27:55.401Z,1008.08
2022-08-05T00:28:55.328Z,1007.83
2022-08-05T00:29:56.351Z,1007.72
2022-08-05T00:30:55.392Z,1007.66
2022-08-05T00:32:13.385Z,1007.71
2022-08-05T00:32:55.451Z,1007.82
2022-08-05T00:34:57.051Z,1008.03
2022-08-05T00:35:06.617Z,1008.19
2022-08-05T00:36:15.846Z,1008.29
2022-08-05T00:37:12.965Z,1008.34
2022-08-05T00:37:55.600Z,1008.29
2022-08-05T00:38:55.698Z,1008.22
2022-08-05T00:39:57.858Z,1008.10
2022-08-05T00:40:55.688Z,1007.97
2022-08-05T00:41:55.929Z,1007.89
2022-08-05T00:42:55.750Z,1007.76
2022-08-05T00:43:55.776Z,1007.60
2022-08-05T00:44:55.807Z,1007.53
2022-08-05T00:45:55.838Z,1007.47
2022-08-05T00:47:02.165Z,1007.37
2022-08-05T00:47:57.792Z,1007.34
2022-08-05T00:48:55.927Z,1007.38
2022-08-05T00:49:55.952Z,1007.38
2022-08-05T00:50:55.984Z,1007.33
2022-08-05T00:51:56.013Z,1007.29
2022-08-05T00:52:56.043Z,1007.21
2022-08-05T00:54:02.202Z,1007.20
2022-08-05T00:54:56.290Z,1007.16
2022-08-05T00:55:56.128Z,1007.14
2022-08-05T00:56:56.159Z,1007.11
2022-08-05T00:57:58.962Z,1007.20
2022-08-05T00:58:56.215Z,1007.21
2022-08-05T00:59:56.244Z,1007.30
2022-08-05T01:00:56.371Z,1007.28
2022-08-05T01:01:56.350Z,1007.33
2022-08-05T01:02:56.340Z,1007.32
2022-08-05T01:03:56.359Z,1007.34
2022-08-05T01:04:56.390Z,1007.34
2022-08-05T01:05:56.417Z,1007.36
2022-08-05T01:06:56.455Z,1007.41
2022-08-05T01:08:41.181Z,1007.37
2022-08-05T01:08:56.504Z,1007.33
2022-08-05T01:09:56.533Z,1007.32
2022-08-05T01:10:56.562Z,1007.32
2022-08-05T01:11:56.590Z,1007.30
2022-08-05T01:13:10.444Z,1007.35
2022-08-05T01:13:57.366Z,1007.36
2022-08-05T01:14:56.677Z,1007.41
2022-08-05T01:15:56.712Z,1007.44
2022-08-05T01:16:56.737Z,1007.45
2022-08-05T01:17:56.765Z,1007.51
2022-08-05T01:18:56.821Z,1007.49
2022-08-05T01:20:03.076Z,1007.54
2022-08-05T01:20:56.852Z,1007.57
2022-08-05T01:21:56.874Z,1007.64
2022-08-05T01:22:57.174Z,1007.71
2022-08-05T01:23:56.938Z,1007.74
2022-08-05T01:24:56.971Z,1007.75
2022-08-05T01:25:56.996Z,1007.82
2022-08-05T01:26:57.023Z,1007.84
2022-08-05T01:27:57.048Z,1007.91
2022-08-05T01:28:57.086Z,1007.91
2022-08-05T01:29:57.110Z,1007.97
2022-08-05T01:30:57.138Z,1007.95
2022-08-05T01:31:57.168Z,1007.97
2022-08-05T01:32:57.204Z,1007.95
2022-08-05T01:33:57.224Z,1007.98
2022-08-05T01:34:57.253Z,1008.01
2022-08-05T01:35:57.462Z,1007.99
2022-08-05T01:36:57.313Z,1008.02
2022-08-05T01:37:57.341Z,1008.05
2022-08-05T01:39:00.264Z,1008.04
2022-08-05T01:39:59.127Z,1008.07
2022-08-05T01:40:57.425Z,1008.08
2022-08-05T01:41:57.454Z,1008.04
2022-08-05T01:42:57.482Z,1008.03
2022-08-05T01:43:57.511Z,1008.08
2022-08-05T01:44:59.168Z,1008.09
2022-08-05T01:45:57.647Z,1008.10
2022-08-05T01:46:57.600Z,1008.13
2022-08-05T01:47:57.630Z,1008.09
2022-08-05T01:48:57.654Z,1008.07
2022-08-05T01:50:01.847Z,1008.04
2022-08-05T01:50:57.716Z,1008.04
2022-08-05T01:51:58.236Z,1008.05
2022-08-05T01:52:57.774Z,1008.07
2022-08-05T01:53:59.074Z,1008.12
2022-08-05T01:54:57.830Z,1008.16
2022-08-05T01:55:57.859Z,1008.20
2022-08-05T01:58:11.542Z,1008.26
2022-08-05T01:58:29.709Z,1008.20
2022-08-05T01:58:57.947Z,1008.30
2022-08-05T01:59:57.978Z,1008.31
2022-08-05T02:00:58.004Z,1008.27
2022-08-05T02:01:58.104Z,1008.31
2022-08-05T02:02:58.070Z,1008.30
2022-08-05T02:03:58.091Z,1008.29
2022-08-05T02:04:58.119Z,1008.34
2022-08-05T02:06:00.902Z,1008.32
2022-08-05T02:06:58.179Z,1008.38
2022-08-05T02:08:01.294Z,1008.37
2022-08-05T02:08:59.368Z,1008.47
2022-08-05T02:09:58.263Z,1008.42
2022-08-05T02:10:58.290Z,1008.39
2022-08-05T02:11:58.320Z,1008.43
2022-08-05T02:12:58.470Z,1008.42
2022-08-05T02:13:58.378Z,1008.43
2022-08-05T02:14:58.404Z,1008.48
2022-08-05T02:15:58.432Z,1008.48
2022-08-05T02:16:58.466Z,1008.48
2022-08-05T02:18:28.136Z,1008.43
2022-08-05T02:18:58.527Z,1008.47
2022-08-05T02:19:58.546Z,1008.48
2022-08-05T02:20:58.756Z,1008.46
2022-08-05T02:21:58.604Z,1008.44
2022-08-05T02:22:58.634Z,1008.43
2022-08-05T02:23:58.662Z,1008.44
2022-08-05T02:24:59.987Z,1008.44
2022-08-05T02:25:58.721Z,1008.41
2022-08-05T02:26:58.749Z,1008.40
2022-08-05T02:28:00.518Z,1008.42
2022-08-05T02:28:58.836Z,1008.38
2022-08-05T02:30:00.909Z,1008.37
2022-08-05T02:30:58.873Z,1008.41
2022-08-05T02:31:58.890Z,1008.41
2022-08-05T02:32:58.918Z,1008.41
2022-08-05T02:33:58.945Z,1008.40
2022-08-05T02:34:58.973Z,1008.38
2022-08-05T02:36:01.193Z,1008.36
2022-08-05T02:36:59.033Z,1008.38
2022-08-05T02:38:00.340Z,1008.37
2022-08-05T02:38:59.115Z,1008.35
2022-08-05T02:39:59.116Z,1008.38
2022-08-05T02:40:59.151Z,1008.38
2022-08-05T02:42:00.698Z,1008.38
2022-08-05T02:42:59.201Z,1008.38
2022-08-05T02:44:02.711Z,1008.42
2022-08-05T02:44:59.259Z,1008.41
2022-08-05T02:45:59.286Z,1008.43
2022-08-05T02:47:00.893Z,1008.44
2022-08-05T02:48:11.652Z,1008.49
2022-08-05T02:48:59.375Z,1008.45
2022-08-05T02:49:59.397Z,1008.49
2022-08-05T02:50:59.428Z,1008.48
2022-08-05T02:52:04.411Z,1008.52
2022-08-05T02:52:59.483Z,1008.49
2022-08-05T02:54:03.982Z,1008.50
2022-08-05T02:55:01.855Z,1008.51
2022-08-05T02:56:02.255Z,1008.52
2022-08-05T02:56:59.599Z,1008.46
2022-08-05T02:58:11.882Z,1008.46
2022-08-05T02:58:59.655Z,1008.44
2022-08-05T02:59:59.682Z,1008.44
2022-08-05T03:00:59.714Z,1008.46
2022-08-05T03:01:59.783Z,1008.46
2022-08-05T03:02:59.773Z,1008.49
2022-08-05T03:04:02.998Z,1008.48
2022-08-05T03:04:59.827Z,1008.48
2022-08-05T03:06:55.504Z,1008.47
2022-08-05T03:07:00.281Z,1008.52
2022-08-05T03:08:07.384Z,1008.51
2022-08-05T03:08:59.940Z,1008.51
2022-08-05T03:09:59.972Z,1008.48
2022-08-05T03:11:54.000Z,1008.51
2022-08-05T03:12:00.026Z,1008.48
2022-08-05T03:13:21.071Z,1008.49
2022-08-05T03:14:02.851Z,1008.51
2022-08-05T03:15:00.111Z,1008.55
2022-08-05T03:16:00.151Z,1008.51
2022-08-05T03:17:00.165Z,1008.53
2022-08-05T03:18:00.214Z,1008.54
2022-08-05T03:19:00.225Z,1008.54
2022-08-05T03:20:00.268Z,1008.56
2022-08-05T03:21:00.279Z,1008.59
2022-08-05T03:22:00.316Z,1008.57
2022-08-05T03:23:00.336Z,1008.57
2022-08-05T03:24:00.367Z,1008.55
2022-08-05T03:25:11.555Z,1008.56
2022-08-05T03:26:04.485Z,1008.54
2022-08-05T03:27:00.451Z,1008.60
2022-08-05T03:28:00.728Z,1008.64
2022-08-05T03:29:00.509Z,1008.63
2022-08-05T03:30:08.531Z,1008.67
2022-08-05T03:31:00.573Z,1008.64
2022-08-05T03:32:00.813Z,1008.65
2022-08-05T03:33:00.618Z,1008.67
2022-08-05T03:34:00.655Z,1008.61
2022-08-05T03:35:00.855Z,1008.69
2022-08-05T03:36:00.707Z,1008.71
2022-08-05T03:37:00.735Z,1008.73
2022-08-05T03:38:00.764Z,1008.75
2022-08-05T03:39:00.833Z,1008.79
2022-08-05T03:40:01.236Z,1008.80
2022-08-05T03:41:00.849Z,1008.81
2022-08-05T03:42:00.877Z,1008.78
2022-08-05T03:43:15.889Z,1008.74
2022-08-05T03:44:10.998Z,1008.69
2022-08-05T03:45:01.863Z,1008.69
2022-08-05T03:46:00.991Z,1008.67
2022-08-05T03:47:01.021Z,1008.67
2022-08-05T03:48:01.048Z,1008.67
2022-08-05T03:49:01.932Z,1008.73
2022-08-05T03:50:01.182Z,1008.74
2022-08-05T03:52:37.936Z,1008.77
2022-08-05T03:52:48.404Z,1008.76
2022-08-05T03:55:00.423Z,1008.76
2022-08-05T03:55:50.441Z,1008.76
2022-08-05T03:56:03.888Z,1008.79
2022-08-05T03:56:12.202Z,1008.84
2022-08-05T03:57:01.300Z,1008.79
2022-08-05T03:58:01.327Z,1008.83
2022-08-05T03:59:01.357Z,1008.77
2022-08-05T04:00:01.676Z,1008.79
2022-08-05T04:01:01.455Z,1008.78
2022-08-05T04:02:01.496Z,1008.74
2022-08-05T04:03:01.471Z,1008.72
2022-08-05T04:04:10.556Z,1008.69
2022-08-05T04:05:01.536Z,1008.65
2022-08-05T04:06:01.570Z,1008.66
2022-08-05T04:07:01.588Z,1008.69
2022-08-05T04:08:01.612Z,1008.70
2022-08-05T04:09:01.641Z,1008.79
2022-08-05T04:10:03.153Z,1008.89
2022-08-05T04:11:01.690Z,1008.90
2022-08-05T04:12:01.727Z,1008.84
2022-08-05T04:13:04.220Z,1008.85
2022-08-05T04:14:01.787Z,1008.84
2022-08-05T04:15:01.811Z,1008.81
2022-08-05T04:16:04.516Z,1008.81
2022-08-05T04:17:02.858Z,1008.81
2022-08-05T04:18:01.893Z,1008.86
2022-08-05T04:19:01.922Z,1008.87
2022-08-05T04:20:02.516Z,1008.90
2022-08-05T04:21:01.980Z,1008.86
2022-08-05T04:22:08.747Z,1008.91
2022-08-05T04:23:02.033Z,1008.95
2022-08-05T04:24:06.676Z,1008.98
2022-08-05T04:25:02.092Z,1008.95
2022-08-05T04:26:02.120Z,1008.89
2022-08-05T04:27:02.152Z,1008.91
2022-08-05T04:28:05.748Z,1008.88
2022-08-05T04:29:07.300Z,1008.84
2022-08-05T04:30:03.854Z,1008.79
2022-08-05T04:31:02.259Z,1008.72
2022-08-05T04:32:02.289Z,1008.64
2022-08-05T04:33:02.315Z,1008.60
2022-08-05T04:34:31.138Z,1008.59
2022-08-05T04:35:02.373Z,1008.68
2022-08-05T04:36:15.667Z,1008.77
2022-08-05T04:37:03.230Z,1008.77
2022-08-05T04:38:06.576Z,1008.66
2022-08-05T04:39:02.531Z,1008.61
2022-08-05T04:40:02.515Z,1008.56
2022-08-05T04:41:03.524Z,1008.49
2022-08-05T04:42:03.659Z,1008.44
2022-08-05T04:43:02.598Z,1008.33
2022-08-05T04:44:09.621Z,1008.27
2022-08-05T04:45:02.658Z,1008.17
2022-08-05T04:46:02.686Z,1008.09
2022-08-05T04:47:09.012Z,1008.04
2022-08-05T04:48:02.750Z,1008.06
2022-08-05T04:49:02.770Z,1008.04
2022-08-05T04:50:11.246Z,1008.04
2022-08-05T04:51:11.456Z,1008.09
2022-08-05T04:52:10.033Z,1008.11
2022-08-05T04:55:14.171Z,1007.91
2022-08-05T04:56:33.382Z,1007.80
2022-08-05T04:58:14.921Z,1007.73
2022-08-05T04:59:24.097Z,1007.80
2022-08-05T05:02:05.782Z,1007.93
2022-08-05T05:02:36.283Z,1007.97
2022-08-05T05:04:23.022Z,1008.07
2022-08-05T05:05:28.236Z,1008.07
2022-08-05T05:07:17.133Z,1008.03
2022-08-05T05:08:30.041Z,1007.98
2022-08-05T05:10:20.520Z,1007.75
2022-08-05T05:11:20.068Z,1007.60
2022-08-05T05:13:24.101Z,1007.53
2022-08-05T05:14:28.145Z,1007.53
2022-08-05T05:16:30.333Z,1007.79
2022-08-05T05:17:55.415Z,1007.86
2022-08-05T05:19:37.194Z,1007.91
2022-08-05T05:20:32.203Z,1007.93
2022-08-05T05:22:26.764Z,1008.04
2022-08-05T05:23:25.368Z,1008.15
2022-08-05T05:25:32.611Z,1008.44
2022-08-05T05:26:32.842Z,1008.60
2022-08-05T05:28:38.872Z,1008.87
2022-08-05T05:30:03.473Z,1008.98
2022-08-05T05:31:58.978Z,1009.09
2022-08-05T05:33:59.651Z,1009.15
2022-08-05T05:34:41.521Z,1009.16
2022-08-05T05:36:37.354Z,1009.24
2022-08-05T05:37:59.040Z,1009.21
2022-08-05T05:39:38.542Z,1009.20
2022-08-05T05:40:38.873Z,1009.14
2022-08-05T05:42:43.038Z,1009.15
2022-08-05T05:43:58.385Z,1009.13
2022-08-05T05:45:48.363Z,1009.19
2022-08-05T05:46:47.817Z,1009.21
2022-08-05T05:48:05.529Z,1009.27
2022-08-05T05:48:47.956Z,1009.28
2022-08-05T05:49:47.202Z,1009.35
2022-08-05T05:50:47.230Z,1009.37
2022-08-05T05:51:49.984Z,1009.38
2022-08-05T05:52:47.285Z,1009.37
2022-08-05T05:53:58.099Z,1009.42
2022-08-05T05:54:50.066Z,1009.42
2022-08-05T05:55:52.386Z,1009.46
2022-08-05T05:56:47.459Z,1009.43
2022-08-05T05:57:52.149Z,1009.37
2022-08-05T05:58:47.449Z,1009.32
2022-08-05T05:59:47.487Z,1009.24
2022-08-05T06:00:47.532Z,1009.16
2022-08-05T06:01:57.907Z,1009.18
2022-08-05T06:02:47.569Z,1009.16
2022-08-05T06:04:01.755Z,1009.21
2022-08-05T06:04:49.357Z,1009.16
2022-08-05T06:05:54.114Z,1009.25
2022-08-05T06:06:49.061Z,1009.27
2022-08-05T06:08:01.305Z,1009.25
2022-08-05T06:08:49.205Z,1009.20
2022-08-05T06:10:00.546Z,1009.17
2022-08-05T06:10:52.700Z,1009.08
2022-08-05T06:11:59.245Z,1008.99
2022-08-05T06:12:47.854Z,1008.96
2022-08-05T06:13:53.625Z,1008.91
2022-08-05T06:14:47.901Z,1008.89
2022-08-05T06:16:28.552Z,1008.86
2022-08-05T06:16:47.958Z,1008.86
2022-08-05T06:17:53.136Z,1008.88
2022-08-05T06:18:48.013Z,1008.91
2022-08-05T06:19:56.970Z,1008.90
2022-08-05T06:20:48.066Z,1008.88
2022-08-05T06:21:49.707Z,1008.81
2022-08-05T06:22:48.163Z,1008.70
2022-08-05T06:23:49.849Z,1008.68
2022-08-05T06:24:48.858Z,1008.64
2022-08-05T06:26:13.405Z,1008.63
2022-08-05T06:26:52.159Z,1008.63
2022-08-05T06:28:12.093Z,1008.67
2022-08-05T06:28:48.291Z,1008.71
2022-08-05T06:30:04.217Z,1008.78
2022-08-05T06:30:48.349Z,1008.85
2022-08-05T06:31:48.381Z,1008.87
2022-08-05T06:32:48.405Z,1008.93
2022-08-05T06:34:06.425Z,1008.96
2022-08-05T06:34:48.466Z,1009.01
2022-08-05T06:36:03.619Z,1009.04
2022-08-05T06:36:57.036Z,1009.09
2022-08-05T06:37:56.688Z,1009.10
2022-08-05T06:38:48.576Z,1009.13
2022-08-05T06:39:48.697Z,1009.18
2022-08-05T06:40:49.374Z,1009.21
2022-08-05T06:41:48.742Z,1009.18
2022-08-05T06:42:48.685Z,1009.16
2022-08-05T06:43:58.550Z,1009.16
2022-08-05T06:44:49.287Z,1009.08
2022-08-05T06:46:04.236Z,1009.00
2022-08-05T06:46:50.733Z,1008.97
2022-08-05T06:48:47.060Z,1008.98
2022-08-05T06:48:56.745Z,1008.96
2022-08-05T06:50:00.406Z,1009.00
2022-08-05T06:50:49.882Z,1009.05
2022-08-05T06:51:48.945Z,1009.11
2022-08-05T06:52:58.586Z,1009.09
2022-08-05T06:53:53.647Z,1009.14
2022-08-05T06:54:52.033Z,1009.17
2022-08-05T06:55:49.058Z,1009.20
2022-08-05T06:56:54.683Z,1009.22
2022-08-05T06:57:57.738Z,1009.20
2022-08-05T06:58:49.147Z,1009.16
2022-08-05T06:59:57.907Z,1009.16
2022-08-05T07:00:49.228Z,1009.16
2022-08-05T07:01:52.981Z,1009.15
2022-08-05T07:02:53.938Z,1009.12
2022-08-05T07:03:49.286Z,1009.13
2022-08-05T07:04:49.316Z,1009.04
2022-08-05T07:05:49.345Z,1009.01
2022-08-05T07:06:50.256Z,1009.06
2022-08-05T07:07:49.400Z,1009.07
2022-08-05T07:08:53.172Z,1009.11
2022-08-05T07:09:49.459Z,1009.19
2022-08-05T07:10:53.072Z,1009.22
2022-08-05T07:11:51.608Z,1009.26
2022-08-05T07:12:49.547Z,1009.36
2022-08-05T07:13:59.454Z,1009.28
2022-08-05T07:14:49.597Z,1009.24
2022-08-05T07:16:01.057Z,1009.23
2022-08-05T07:17:56.816Z,1009.26
2022-08-05T07:17:57.014Z,1009.27
2022-08-05T07:18:49.711Z,1009.26
2022-08-05T07:20:32.197Z,1009.23
2022-08-05T07:20:49.767Z,1009.25
2022-08-05T07:22:00.510Z,1009.26
2022-08-05T07:22:49.846Z,1009.26
2022-08-05T07:23:52.287Z,1009.25
2022-08-05T07:24:52.623Z,1009.22
2022-08-05T07:25:56.213Z,1009.22
2022-08-05T07:26:49.940Z,1009.29
2022-08-05T07:27:57.459Z,1009.32
2022-08-05T07:28:49.997Z,1009.36
2022-08-05T07:30:28.228Z,1009.44
2022-08-05T07:30:52.817Z,1009.45
2022-08-05T07:31:54.891Z,1009.47
2022-08-05T07:32:51.050Z,1009.54
2022-08-05T07:33:50.138Z,1009.57
2022-08-05T07:34:50.172Z,1009.56
2022-08-05T07:36:02.761Z,1009.58
2022-08-05T07:36:51.330Z,1009.61
2022-08-05T07:37:50.250Z,1009.57
2022-08-05T07:38:54.602Z,1009.58
2022-08-05T07:40:04.225Z,1009.46
2022-08-05T07:40:55.724Z,1009.48
2022-08-05T07:42:13.302Z,1009.43
2022-08-05T07:42:50.393Z,1009.40
2022-08-05T07:43:50.419Z,1009.36
2022-08-05T07:44:50.452Z,1009.34
2022-08-05T07:45:57.083Z,1009.38
2022-08-05T07:46:50.656Z,1009.38
2022-08-05T07:47:50.538Z,1009.38
2022-08-05T07:49:04.077Z,1009.38
2022-08-05T07:49:54.299Z,1009.33
2022-08-05T07:50:50.617Z,1009.31
2022-08-05T07:51:54.733Z,1009.25
2022-08-05T07:52:50.671Z,1009.28
2022-08-05T07:53:51.772Z,1009.32
2022-08-05T07:54:50.744Z,1009.29
2022-08-05T07:56:06.587Z,1009.32
2022-08-05T07:57:14.627Z,1009.30
2022-08-05T07:57:57.420Z,1009.36
2022-08-05T07:58:58.551Z,1009.39
2022-08-05T07:59:50.882Z,1009.34
2022-08-05T08:00:50.939Z,1009.35
2022-08-05T08:01:52.480Z,1009.33
2022-08-05T08:03:15.282Z,1009.39
2022-08-05T08:03:51.316Z,1009.43
2022-08-05T08:04:51.012Z,1009.47
2022-08-05T08:05:51.040Z,1009.53
2022-08-05T08:06:51.264Z,1009.65
2022-08-05T08:08:00.038Z,1009.58
2022-08-05T08:08:51.225Z,1009.55
2022-08-05T08:09:52.422Z,1009.57
2022-08-05T08:10:51.184Z,1009.56
2022-08-05T08:11:59.043Z,1009.58
2022-08-05T08:12:51.236Z,1009.59
2022-08-05T08:14:01.073Z,1009.61
2022-08-05T08:14:51.296Z,1009.63
2022-08-05T08:16:49.729Z,1009.74
2022-08-05T08:16:53.496Z,1009.79
2022-08-05T08:17:53.033Z,1009.81
2022-08-05T08:18:51.408Z,1009.89
2022-08-05T08:20:23.515Z,1009.98
2022-08-05T08:21:02.081Z,1009.95
2022-08-05T08:21:51.494Z,1009.97
2022-08-05T08:22:51.522Z,1009.96
2022-08-05T08:24:03.101Z,1009.88
2022-08-05T08:24:52.159Z,1009.86
2022-08-05T08:26:00.031Z,1009.83
2022-08-05T08:26:52.410Z,1009.80
2022-08-05T08:27:51.663Z,1009.77
2022-08-05T08:28:58.997Z,1009.84
2022-08-05T08:30:04.321Z,1009.89
2022-08-05T08:30:51.749Z,1009.92
2022-08-05T08:31:51.771Z,1009.93
2022-08-05T08:32:51.801Z,1009.99
2022-08-05T08:33:53.232Z,1010.04
2022-08-05T08:34:51.859Z,1010.06
2022-08-05T08:35:52.970Z,1010.11
2022-08-05T08:36:55.819Z,1010.16
2022-08-05T08:37:54.403Z,1010.19
2022-08-05T08:38:53.208Z,1010.20
2022-08-05T08:39:52.034Z,1010.25
2022-08-05T08:40:52.029Z,1010.29
2022-08-05T08:41:59.550Z,1010.30
2022-08-05T08:42:52.710Z,1010.30
2022-08-05T08:45:18.935Z,1010.36
2022-08-05T08:45:19.601Z,1010.37
2022-08-05T08:45:52.168Z,1010.38
2022-08-05T08:46:52.207Z,1010.36
2022-08-05T08:48:07.507Z,1010.36
2022-08-05T08:49:06.429Z,1010.39
2022-08-05T08:50:13.194Z,1010.45
2022-08-05T08:51:07.710Z,1010.44
2022-08-05T08:52:05.728Z,1010.51
2022-08-05T08:52:53.128Z,1010.53
2022-08-05T08:53:52.396Z,1010.60
2022-08-05T08:54:52.442Z,1010.66
2022-08-05T08:56:03.919Z,1010.67
2022-08-05T08:56:52.478Z,1010.69
2022-08-05T08:57:57.991Z,1010.70
2022-08-05T08:58:52.536Z,1010.67
2022-08-05T08:59:52.562Z,1010.66
2022-08-05T09:00:52.665Z,1010.63
2022-08-05T09:01:57.380Z,1010.56
2022-08-05T09:02:52.648Z,1010.50
2022-08-05T09:03:54.450Z,1010.49
2022-08-05T09:05:16.066Z,1010.47
2022-08-05T09:06:07.765Z,1010.50
2022-08-05T09:06:52.758Z,1010.53
2022-08-05T09:07:56.747Z,1010.47
2022-08-05T09:08:52.987Z,1010.51
2022-08-05T09:09:52.840Z,1010.56
2022-08-05T09:10:52.869Z,1010.59
2022-08-05T09:11:55.336Z,1010.63
2022-08-05T09:12:53.122Z,1010.66
2022-08-05T09:14:10.152Z,1010.61
2022-08-05T09:14:56.432Z,1010.62
2022-08-05T09:15:53.014Z,1010.63
2022-08-05T09:16:53.039Z,1010.54
2022-08-05T09:17:53.194Z,1010.56
2022-08-05T09:18:53.105Z,1010.58
2022-08-05T09:20:01.403Z,1010.54
2022-08-05T09:20:53.159Z,1010.59
2022-08-05T09:22:21.772Z,1010.57
2022-08-05T09:22:53.211Z,1010.55
2022-08-05T09:23:53.244Z,1010.54
2022-08-05T09:24:53.279Z,1010.56
2022-08-05T09:26:02.926Z,1010.63
2022-08-05T09:26:53.325Z,1010.61
2022-08-05T09:28:05.496Z,1010.61
2022-08-05T09:28:53.383Z,1010.62
2022-08-05T09:29:53.410Z,1010.61
2022-08-05T09:30:53.440Z,1010.62
2022-08-05T09:32:40.934Z,1010.62
2022-08-05T09:32:53.947Z,1010.63
2022-08-05T09:33:53.674Z,1010.71
2022-08-05T09:34:53.552Z,1010.67
2022-08-05T09:35:53.592Z,1010.67
2022-08-05T09:36:56.234Z,1010.63
2022-08-05T09:38:13.076Z,1010.67
2022-08-05T09:38:53.746Z,1010.66
2022-08-05T09:39:56.076Z,1010.70
2022-08-05T09:40:54.104Z,1010.74
2022-08-05T09:41:56.223Z,1010.78
2022-08-05T09:42:53.933Z,1010.77
2022-08-05T09:43:53.809Z,1010.84
2022-08-05T09:44:56.009Z,1010.80
2022-08-05T09:46:06.177Z,1010.81
2022-08-05T09:46:58.157Z,1010.83
2022-08-05T09:47:56.280Z,1010.83
2022-08-05T09:49:07.345Z,1010.85
2022-08-05T09:50:00.712Z,1010.84
2022-08-05T09:50:54.016Z,1010.84
2022-08-05T09:51:54.053Z,1010.82
2022-08-05T09:52:54.099Z,1010.84
2022-08-05T09:53:59.282Z,1010.87
2022-08-05T09:54:54.127Z,1010.87
2022-08-05T09:55:57.525Z,1010.92
2022-08-05T09:56:54.188Z,1010.97
2022-08-05T09:57:54.576Z,1010.92
2022-08-05T09:58:54.321Z,1011.02
2022-08-05T09:59:54.274Z,1011.00
2022-08-05T10:00:54.313Z,1011.03
2022-08-05T10:01:57.896Z,1011.02
2022-08-05T10:02:54.409Z,1011.13
2022-08-05T10:03:59.092Z,1011.13
2022-08-05T10:04:54.420Z,1011.16
2022-08-05T10:05:54.446Z,1011.14
2022-08-05T10:06:58.679Z,1011.09
2022-08-05T10:08:34.865Z,1011.03
2022-08-05T10:08:55.630Z,1011.06
2022-08-05T10:10:04.404Z,1011.10
2022-08-05T10:10:54.993Z,1011.13
2022-08-05T10:11:54.620Z,1011.21
2022-08-05T10:12:54.646Z,1011.30
2022-08-05T10:13:54.972Z,1011.32
2022-08-05T10:14:54.716Z,1011.38
2022-08-05T10:15:54.736Z,1011.35
2022-08-05T10:16:54.764Z,1011.30
2022-08-05T10:17:57.577Z,1011.28
2022-08-05T10:18:54.827Z,1011.30
2022-08-05T10:20:03.778Z,1011.28
2022-08-05T10:20:54.875Z,1011.23
2022-08-05T10:21:54.907Z,1011.18
2022-08-05T10:22:54.934Z,1011.19
2022-08-05T10:23:59.044Z,1011.20
2022-08-05T10:24:54.992Z,1011.20
2022-08-05T10:25:55.019Z,1011.19
2022-08-05T10:26:55.094Z,1011.20
2022-08-05T10:28:12.750Z,1011.21
2022-08-05T10:28:56.451Z,1011.20
2022-08-05T10:30:40.794Z,1011.20
2022-08-05T10:32:54.721Z,1011.21
2022-08-05T10:33:01.706Z,1011.18
2022-08-05T10:33:02.274Z,1011.19
2022-08-05T10:33:55.255Z,1011.25
2022-08-05T10:34:55.283Z,1011.27
2022-08-05T10:35:59.276Z,1011.31
2022-08-05T10:36:55.347Z,1011.32
2022-08-05T10:37:55.369Z,1011.38
2022-08-05T10:38:55.421Z,1011.35
2022-08-05T10:40:03.196Z,1011.38
2022-08-05T10:40:58.023Z,1011.46
2022-08-05T10:42:00.471Z,1011.49
2022-08-05T10:42:55.517Z,1011.53
2022-08-05T10:43:55.548Z,1011.54
2022-08-05T10:44:55.575Z,1011.49
2022-08-05T10:45:55.604Z,1011.52
2022-08-05T10:46:55.638Z,1011.53
2022-08-05T10:48:30.055Z,1011.54
2022-08-05T10:48:58.042Z,1011.54
2022-08-05T10:50:33.130Z,1011.62
2022-08-05T10:50:55.753Z,1011.67
2022-08-05T10:51:59.932Z,1011.72
2022-08-05T10:52:58.675Z,1011.74
2022-08-05T10:53:55.842Z,1011.82
2022-08-05T10:54:57.261Z,1011.81
2022-08-05T10:56:03.766Z,1011.78
2022-08-05T10:56:55.929Z,1011.84
2022-08-05T10:57:55.959Z,1011.84
2022-08-05T10:58:55.992Z,1011.88
2022-08-05T11:00:02.219Z,1011.87
2022-08-05T11:01:03.200Z,1011.89
2022-08-05T11:02:04.803Z,1011.91
2022-08-05T11:02:56.149Z,1011.89
2022-08-05T11:03:56.161Z,1011.95
2022-08-05T11:04:56.170Z,1011.93
2022-08-05T11:05:56.201Z,1012.01
2022-08-05T11:06:56.225Z,1012.02
2022-08-05T11:08:02.916Z,1012.06
2022-08-05T11:08:56.287Z,1012.07
2022-08-05T11:10:03.754Z,1012.09
2022-08-05T11:11:01.012Z,1012.11
2022-08-05T11:11:56.371Z,1012.08
2022-08-05T11:12:56.405Z,1012.07
2022-08-05T11:13:58.324Z,1012.09
2022-08-05T11:15:11.577Z,1012.13
2022-08-05T11:18:34.157Z,1012.17
2022-08-05T11:20:10.722Z,1012.17
2022-08-05T11:21:40.986Z,1012.16
2022-08-05T11:22:36.231Z,1012.15
2022-08-05T11:24:40.729Z,1012.14
2022-08-05T11:26:04.451Z,1012.16
2022-08-05T11:27:51.116Z,1012.20
2022-08-05T11:28:33.447Z,1012.23
2022-08-05T11:30:38.448Z,1012.31
2022-08-05T11:31:53.888Z,1012.34
2022-08-05T11:33:46.614Z,1012.32
2022-08-05T11:34:51.102Z,1012.33
2022-08-05T11:36:40.434Z,1012.38
2022-08-05T11:38:28.578Z,1012.40
2022-08-05T11:39:38.616Z,1012.40
2022-08-05T11:40:38.585Z,1012.44
2022-08-05T11:42:43.088Z,1012.41
2022-08-05T11:44:04.761Z,1012.43
2022-08-05T11:46:23.383Z,1012.44
2022-08-05T11:46:58.670Z,1012.44
2022-08-05T11:48:51.686Z,1012.50
2022-08-05T11:49:51.108Z,1012.52
2022-08-05T11:51:54.756Z,1012.46
2022-08-05T11:52:57.940Z,1012.50
2022-08-05T11:54:59.285Z,1012.54
2022-08-05T11:55:58.840Z,1012.52
2022-08-05T11:58:09.498Z,1012.60
2022-08-05T11:59:02.902Z,1012.59
2022-08-05T12:01:08.338Z,1012.60
2022-08-05T12:02:06.954Z,1012.62
2022-08-05T12:04:11.459Z,1012.60
2022-08-05T12:05:18.255Z,1012.60
2022-08-05T12:07:03.960Z,1012.58
2022-08-05T12:08:09.731Z,1012.58
2022-08-05T12:10:09.657Z,1012.57
2022-08-05T12:11:08.050Z,1012.59
2022-08-05T12:13:15.790Z,1012.55
2022-08-05T12:14:12.096Z,1012.54
2022-08-05T12:16:16.443Z,1012.53
2022-08-05T12:18:10.081Z,1012.52
2022-08-05T12:20:28.471Z,1012.52
2022-08-05T12:21:24.270Z,1012.54
2022-08-05T12:23:28.721Z,1012.57
2022-08-05T12:24:28.264Z,1012.57
2022-08-05T12:26:21.424Z,1012.53
2022-08-05T12:27:25.505Z,1012.57
2022-08-05T12:29:25.955Z,1012.54
2022-08-05T12:30:29.094Z,1012.61
2022-08-05T12:32:29.549Z,1012.58
2022-08-05T12:33:36.280Z,1012.58
2022-08-05T12:35:44.533Z,1012.58
2022-08-05T12:36:33.679Z,1012.60
2022-08-05T12:38:37.660Z,1012.61
2022-08-05T12:39:38.733Z,1012.64
2022-08-05T12:41:43.663Z,1012.66
2022-08-05T12:42:41.730Z,1012.67
2022-08-05T12:44:45.770Z,1012.66
2022-08-05T12:45:49.738Z,1012.60
2022-08-05T12:47:43.604Z,1012.66
2022-08-05T12:48:38.969Z,1012.62
2022-08-05T12:50:43.024Z,1012.64
2022-08-05T12:52:11.158Z,1012.70
2022-08-05T12:53:47.537Z,1012.63
2022-08-05T12:54:47.089Z,1012.60
2022-08-05T12:56:40.043Z,1012.65
2022-08-05T12:58:51.004Z,1012.67
2022-08-05T13:00:08.415Z,1012.71
2022-08-05T13:01:59.784Z,1012.70
2022-08-05T13:02:50.939Z,1012.73
2022-08-05T13:03:48.828Z,1012.74
2022-08-05T13:05:52.698Z,1012.80